createdAt,value
2022-09-21T00:01:26.308Z,9.69
2022-09-21T00:03:55.772Z,9.68
2022-09-21T00:06:24.341Z,9.70
2022-09-21T00:08:51.328Z,9.74
2022-09-21T00:11:21.253Z,9.77
2022-09-21T00:13:51.421Z,9.82
2022-09-21T00:16:18.115Z,9.87
2022-09-21T00:18:44.736Z,9.86
2022-09-21T00:21:13.994Z,9.91
2022-09-21T00:23:43.055Z,9.94
2022-09-21T00:26:26.258Z,10.00
2022-09-21T00:28:55.343Z,10.00
2022-09-21T00:31:22.744Z,10.03
2022-09-21T00:33:50.606Z,10.06
2022-09-21T00:36:19.926Z,10.09
2022-09-21T00:38:57.135Z,10.10
2022-09-21T00:41:25.189Z,10.13
2022-09-21T00:44:22.751Z,10.16
2022-09-21T00:46:54.164Z,10.15
2022-09-21T00:49:21.802Z,10.18
2022-09-21T00:51:52.893Z,10.22
2022-09-21T00:54:26.633Z,10.23
2022-09-21T00:56:55.112Z,10.30
2022-09-21T00:59:24.775Z,10.31
2022-09-21T01:01:54.510Z,10.32
2022-09-21T01:04:22.269Z,10.34
2022-09-21T01:06:49.797Z,10.33
2022-09-21T01:09:18.376Z,10.31
2022-09-21T01:12:10.948Z,10.31
2022-09-21T01:14:50.977Z,10.31
2022-09-21T01:17:31.443Z,10.33
2022-09-21T01:20:10.797Z,10.32
2022-09-21T01:23:02.874Z,10.30
2022-09-21T01:26:02.935Z,10.30
2022-09-21T01:28:57.189Z,10.33
2022-09-21T01:31:28.283Z,10.33
2022-09-21T01:34:02.060Z,10.35
2022-09-21T01:36:31.043Z,10.32
2022-09-21T01:39:05.667Z,10.32
2022-09-21T01:41:34.954Z,10.35
2022-09-21T01:44:10.021Z,10.35
2022-09-21T01:46:37.668Z,10.34
2022-09-21T01:49:12.671Z,10.33
2022-09-21T01:51:51.713Z,10.35
2022-09-21T01:54:23.755Z,10.38
2022-09-21T01:57:18.675Z,10.34
2022-09-21T01:59:48.929Z,10.42
2022-09-21T02:02:51.668Z,10.40
2022-09-21T02:05:37.286Z,10.38
2022-09-21T02:08:07.024Z,10.36
2022-09-21T02:10:49.339Z,10.37
2022-09-21T02:13:18.076Z,10.43
2022-09-21T02:16:11.893Z,10.45
2022-09-21T02:19:10.388Z,10.41
2022-09-21T02:21:56.995Z,10.40
2022-09-21T02:24:40.393Z,10.45
2022-09-21T02:27:21.664Z,10.47
2022-09-21T02:30:13.607Z,10.52
2022-09-21T02:33:02.677Z,10.43
2022-09-21T02:35:42.922Z,10.42
2022-09-21T02:38:31.308Z,10.45
2022-09-21T02:41:13.307Z,10.46
2022-09-21T02:43:52.433Z,10.41
2022-09-21T02:46:25.766Z,10.48
2022-09-21T02:49:02.073Z,10.46
2022-09-21T02:51:36.620Z,10.52
2022-09-21T02:54:06.259Z,10.53
2022-09-21T02:56:34.424Z,10.48
2022-09-21T02:59:04.088Z,10.51
2022-09-21T03:01:34.314Z,10.49
2022-09-21T03:04:02.034Z,10.47
2022-09-21T03:06:28.790Z,10.52
2022-09-21T03:08:57.131Z,10.52
2022-09-21T03:11:24.022Z,10.50
2022-09-21T03:13:50.923Z,10.51
2022-09-21T03:16:18.068Z,10.47
2022-09-21T03:18:44.934Z,10.49
2022-09-21T03:21:12.493Z,10.51
2022-09-21T03:23:40.286Z,10.57
2022-09-21T03:26:08.180Z,10.57
2022-09-21T03:28:35.193Z,10.59
2022-09-21T03:31:02.066Z,10.54
2022-09-21T03:33:28.873Z,10.52
2022-09-21T03:35:55.489Z,10.49
2022-09-21T03:38:22.152Z,10.50
2022-09-21T03:40:50.201Z,10.54
2022-09-21T03:43:17.509Z,10.56
2022-09-21T03:45:44.605Z,10.57
2022-09-21T03:48:12.411Z,10.58
2022-09-21T03:50:39.468Z,10.64
2022-09-21T03:53:07.048Z,10.58
2022-09-21T03:55:34.326Z,10.60
2022-09-21T03:58:01.748Z,10.60
2022-09-21T04:00:29.040Z,10.67
2022-09-21T04:02:56.572Z,10.64
2022-09-21T04:05:23.398Z,10.61
2022-09-21T04:07:50.139Z,10.63
2022-09-21T04:10:20.921Z,10.62
2022-09-21T04:12:47.634Z,10.62
2022-09-21T04:15:18.954Z,10.67
2022-09-21T04:17:50.477Z,10.67
2022-09-21T04:20:17.484Z,10.68
2022-09-21T04:22:44.946Z,10.69
2022-09-21T04:25:12.574Z,10.69
2022-09-21T04:27:39.896Z,10.70
2022-09-21T04:30:07.953Z,10.72
2022-09-21T04:32:34.595Z,10.75
2022-09-21T04:35:01.393Z,10.76
2022-09-21T04:37:27.948Z,10.78
2022-09-21T04:39:54.865Z,10.75
2022-09-21T04:42:21.489Z,10.76
2022-09-21T04:44:48.216Z,10.78
2022-09-21T04:47:14.869Z,10.82
2022-09-21T04:49:41.529Z,10.82
2022-09-21T04:52:08.164Z,10.85
2022-09-21T04:54:34.857Z,10.88
2022-09-21T04:57:01.501Z,10.89
2022-09-21T04:59:28.067Z,10.94
2022-09-21T05:01:54.754Z,10.95
2022-09-21T05:04:21.344Z,11.00
2022-09-21T05:06:47.939Z,11.03
2022-09-21T05:09:34.735Z,11.06
2022-09-21T05:12:02.578Z,11.10
2022-09-21T05:14:29.271Z,11.08
2022-09-21T05:16:55.986Z,11.06
2022-09-21T05:19:23.098Z,11.04
2022-09-21T05:21:49.694Z,11.05
2022-09-21T05:24:16.263Z,11.04
2022-09-21T05:26:42.940Z,11.06
2022-09-21T05:29:09.883Z,11.04
2022-09-21T05:31:45.103Z,11.05
2022-09-21T05:34:41.294Z,11.08
2022-09-21T05:37:26.255Z,11.12
2022-09-21T05:39:53.127Z,11.15
2022-09-21T05:42:19.933Z,11.18
2022-09-21T05:44:48.878Z,11.22
2022-09-21T05:47:33.568Z,11.26
2022-09-21T05:50:05.399Z,11.29
2022-09-21T05:52:43.493Z,11.33
2022-09-21T05:55:12.847Z,11.32
2022-09-21T05:58:19.266Z,11.30
2022-09-21T06:01:00.531Z,11.32
2022-09-21T06:03:28.984Z,11.43
2022-09-21T06:05:58.917Z,11.43
2022-09-21T06:08:26.222Z,11.43
2022-09-21T06:10:58.373Z,11.46
2022-09-21T06:13:26.312Z,11.53
2022-09-21T06:15:53.250Z,11.53
2022-09-21T06:18:20.232Z,11.58
2022-09-21T06:20:47.164Z,11.64
2022-09-21T06:23:14.438Z,11.72
2022-09-21T06:25:41.224Z,11.77
2022-09-21T06:28:11.104Z,11.81
2022-09-21T06:30:41.481Z,11.85
2022-09-21T06:33:09.258Z,11.84
2022-09-21T06:35:37.054Z,11.89
2022-09-21T06:38:08.167Z,11.88
2022-09-21T06:40:36.962Z,11.94
2022-09-21T06:43:04.894Z,11.97
2022-09-21T06:45:31.795Z,12.00
2022-09-21T06:47:59.099Z,11.97
2022-09-21T06:50:26.103Z,12.02
2022-09-21T06:52:52.717Z,12.09
2022-09-21T06:55:19.677Z,12.21
2022-09-21T06:57:46.720Z,12.32
2022-09-21T07:00:14.103Z,12.39
2022-09-21T07:02:47.687Z,12.45
2022-09-21T07:05:14.357Z,12.49
2022-09-21T07:07:41.038Z,12.54
2022-09-21T07:10:12.380Z,12.64
2022-09-21T07:12:40.942Z,12.77
2022-09-21T07:15:09.948Z,12.87
2022-09-21T07:17:38.752Z,12.91
2022-09-21T07:20:07.405Z,13.02
2022-09-21T07:22:35.514Z,13.09
2022-09-21T07:25:03.979Z,13.06
2022-09-21T07:27:32.958Z,13.08
2022-09-21T07:29:59.853Z,13.06
2022-09-21T07:32:26.889Z,13.10
2022-09-21T07:34:56.619Z,13.19
2022-09-21T07:37:24.870Z,13.32
2022-09-21T07:39:52.612Z,13.37
2022-09-21T07:42:22.038Z,13.41
2022-09-21T07:44:50.229Z,13.58
2022-09-21T07:47:17.993Z,13.81
2022-09-21T07:49:46.518Z,13.96
2022-09-21T07:52:15.016Z,13.92
2022-09-21T07:54:41.601Z,13.95
2022-09-21T07:57:26.967Z,14.02
2022-09-21T07:59:53.795Z,14.17
2022-09-21T08:02:20.457Z,14.22
2022-09-21T08:04:47.062Z,14.19
2022-09-21T08:07:13.628Z,14.14
2022-09-21T08:09:41.253Z,14.07
2022-09-21T08:12:08.660Z,14.04
2022-09-21T08:14:35.689Z,14.00
2022-09-21T08:17:02.437Z,14.03
2022-09-21T08:19:29.039Z,14.06
2022-09-21T08:21:57.915Z,14.14
2022-09-21T08:24:27.537Z,14.05
2022-09-21T08:26:55.257Z,13.91
2022-09-21T08:29:23.026Z,13.87
2022-09-21T08:31:49.740Z,13.85
2022-09-21T08:34:16.891Z,13.80
2022-09-21T08:36:43.614Z,13.80
2022-09-21T08:39:10.233Z,13.84
2022-09-21T08:41:51.980Z,13.96
2022-09-21T08:44:56.717Z,13.93
2022-09-21T08:47:40.152Z,13.92
2022-09-21T08:50:21.833Z,13.97
2022-09-21T08:52:54.169Z,13.97
2022-09-21T08:55:20.954Z,14.17
2022-09-21T08:57:47.676Z,14.50
2022-09-21T09:00:19.274Z,14.67
2022-09-21T09:03:25.516Z,14.73
2022-09-21T09:05:58.395Z,14.70
2022-09-21T09:08:52.470Z,14.59
2022-09-21T09:12:11.235Z,14.42
2022-09-21T09:14:52.864Z,14.29
2022-09-21T09:17:32.276Z,14.20
2022-09-21T09:20:07.695Z,14.13
2022-09-21T09:22:42.091Z,14.05
2022-09-21T09:25:33.894Z,14.13
2022-09-21T09:28:17.610Z,14.17
2022-09-21T09:30:44.759Z,14.42
2022-09-21T09:33:20.048Z,14.71
2022-09-21T09:36:01.412Z,15.03
2022-09-21T09:38:43.525Z,15.20
2022-09-21T09:41:45.420Z,15.39
2022-09-21T09:44:30.110Z,15.57
2022-09-21T09:46:59.722Z,15.60
2022-09-21T09:49:41.334Z,15.77
2022-09-21T09:52:12.678Z,16.20
2022-09-21T09:54:39.669Z,16.34
2022-09-21T09:57:07.427Z,16.22
2022-09-21T09:59:54.230Z,16.04
2022-09-21T10:02:26.668Z,15.90
2022-09-21T10:05:01.055Z,15.94
2022-09-21T10:07:47.729Z,15.79
2022-09-21T10:10:32.518Z,15.43
2022-09-21T10:13:05.354Z,14.84
2022-09-21T10:15:32.404Z,14.41
2022-09-21T10:18:19.157Z,14.14
2022-09-21T10:21:17.234Z,14.11
2022-09-21T10:23:59.675Z,14.25
2022-09-21T10:26:46.974Z,14.73
2022-09-21T10:29:16.749Z,15.71
2022-09-21T10:32:04.281Z,16.03
2022-09-21T10:34:33.946Z,15.85
2022-09-21T10:37:21.865Z,15.62
2022-09-21T10:39:48.735Z,15.37
2022-09-21T10:42:32.620Z,15.10
2022-09-21T10:45:36.836Z,15.02
2022-09-21T10:48:12.653Z,15.33
2022-09-21T10:50:45.570Z,15.63
2022-09-21T10:53:18.545Z,15.99
2022-09-21T10:56:18.015Z,16.33
2022-09-21T10:59:32.670Z,16.37
2022-09-21T11:02:01.857Z,16.22
2022-09-21T11:04:48.941Z,16.20
2022-09-21T11:07:46.185Z,16.28
2022-09-21T11:10:32.085Z,16.59
2022-09-21T11:13:25.200Z,17.58
2022-09-21T11:16:22.743Z,19.44
2022-09-21T11:19:09.820Z,21.05
2022-09-21T11:21:52.376Z,21.01
2022-09-21T11:24:37.745Z,20.36
2022-09-21T11:27:25.175Z,20.14
2022-09-21T11:30:16.037Z,20.60
2022-09-21T11:33:10.249Z,21.03
2022-09-21T11:36:15.454Z,21.33
2022-09-21T11:38:59.896Z,21.47
2022-09-21T11:42:04.433Z,20.92
2022-09-21T11:44:55.349Z,20.33
2022-09-21T11:48:05.094Z,19.91
2022-09-21T11:50:56.955Z,19.86
2022-09-21T11:53:40.054Z,20.87
2022-09-21T11:56:13.455Z,22.41
2022-09-21T11:58:57.223Z,23.67
2022-09-21T12:01:36.153Z,24.48
2022-09-21T12:04:31.596Z,24.98
2022-09-21T12:07:06.997Z,25.21
2022-09-21T12:09:43.591Z,24.88
2022-09-21T12:12:35.569Z,24.94
2022-09-21T12:15:45.837Z,25.44
2022-09-21T12:18:36.851Z,25.83
2022-09-21T12:21:24.187Z,25.25
2022-09-21T12:24:01.824Z,24.67
2022-09-21T12:26:41.285Z,24.32
2022-09-21T12:29:46.697Z,24.37
2022-09-21T12:32:24.684Z,24.59
2022-09-21T12:34:57.007Z,24.74
2022-09-21T12:37:35.633Z,25.07
2022-09-21T12:40:06.492Z,25.22
2022-09-21T12:42:47.857Z,25.46
2022-09-21T12:45:32.101Z,25.95
2022-09-21T12:48:27.974Z,26.22
2022-09-21T12:51:06.220Z,26.02
2022-09-21T12:53:37.925Z,25.95
2022-09-21T12:56:10.527Z,25.91
2022-09-21T12:59:12.641Z,25.75
2022-09-21T13:01:45.089Z,25.37
2022-09-21T13:04:45.968Z,25.06
2022-09-21T13:07:43.641Z,24.35
2022-09-21T13:10:22.123Z,23.35
2022-09-21T13:12:58.795Z,23.13
2022-09-21T13:15:28.239Z,22.94
2022-09-21T13:18:05.605Z,22.86
2022-09-21T13:20:39.518Z,22.97
2022-09-21T13:23:17.101Z,22.86
2022-09-21T13:25:50.397Z,22.18
2022-09-21T13:28:23.433Z,21.49
2022-09-21T13:31:37.051Z,21.01
2022-09-21T13:34:19.074Z,20.82
2022-09-21T13:37:11.105Z,21.00
2022-09-21T13:40:00.851Z,21.04
2022-09-21T13:42:36.481Z,20.75
2022-09-21T13:45:15.137Z,20.65
2022-09-21T13:47:45.215Z,20.78
2022-09-21T13:50:32.315Z,21.26
2022-09-21T13:53:24.890Z,22.12
2022-09-21T13:55:54.785Z,24.00
2022-09-21T13:58:27.604Z,26.36
2022-09-21T14:00:59.949Z,27.99
2022-09-21T14:03:30.548Z,26.01
2022-09-21T14:06:09.879Z,23.91
2022-09-21T14:08:48.795Z,22.03
2022-09-21T14:11:26.208Z,21.36
2022-09-21T14:14:08.929Z,20.90
2022-09-21T14:16:39.312Z,20.41
2022-09-21T14:19:18.272Z,20.76
2022-09-21T14:22:03.410Z,22.39
2022-09-21T14:24:41.219Z,22.23
2022-09-21T14:27:25.378Z,22.03
2022-09-21T14:29:53.689Z,22.05
2022-09-21T14:32:24.790Z,23.23
2022-09-21T14:34:59.258Z,25.57
2022-09-21T14:37:42.675Z,28.00
2022-09-21T14:40:38.805Z,29.72
2022-09-21T14:43:15.034Z,30.75
2022-09-21T14:45:41.764Z,31.39
2022-09-21T14:48:11.808Z,32.08
2022-09-21T14:50:54.610Z,32.55
2022-09-21T14:53:27.520Z,33.88
2022-09-21T14:56:32.772Z,32.71
2022-09-21T14:59:21.310Z,28.69
2022-09-21T15:02:13.922Z,25.99
2022-09-21T15:05:04.773Z,24.09
2022-09-21T15:07:53.102Z,22.11
2022-09-21T15:10:53.071Z,21.00
2022-09-21T15:13:44.635Z,20.26
2022-09-21T15:16:36.829Z,19.86
2022-09-21T15:19:18.404Z,19.70
2022-09-21T15:21:47.594Z,19.37
2022-09-21T15:24:24.351Z,19.02
2022-09-21T15:27:15.385Z,18.46
2022-09-21T15:29:48.819Z,18.21
2022-09-21T15:32:34.212Z,18.00
2022-09-21T15:35:20.186Z,17.95
2022-09-21T15:37:48.124Z,17.76
2022-09-21T15:40:22.076Z,17.56
2022-09-21T15:43:06.216Z,17.38
2022-09-21T15:45:56.861Z,17.16
2022-09-21T16:00:54.776Z,16.21
2022-09-21T16:03:25.508Z,15.96
2022-09-21T16:05:55.687Z,15.79
2022-09-21T16:08:30.459Z,15.40
2022-09-21T16:11:18.635Z,14.96
2022-09-21T16:14:05.995Z,14.50
2022-09-21T16:16:33.189Z,14.23
2022-09-21T16:19:00.311Z,14.07
2022-09-21T16:21:33.741Z,14.00
2022-09-21T16:24:14.841Z,13.86
2022-09-21T16:26:41.678Z,13.72
2022-09-21T16:29:16.277Z,13.59
2022-09-21T16:31:46.296Z,13.50
2022-09-21T16:34:16.637Z,13.49
2022-09-21T16:36:44.768Z,13.42
2022-09-21T16:39:15.487Z,13.35
2022-09-21T16:41:46.954Z,13.30
2022-09-21T16:44:20.382Z,13.29
2022-09-21T16:46:52.341Z,13.25
2022-09-21T16:49:21.455Z,13.17
2022-09-21T16:51:49.544Z,13.09
2022-09-21T16:54:18.436Z,13.04
2022-09-21T16:56:46.017Z,13.03
2022-09-21T16:59:22.868Z,12.95
2022-09-21T17:01:56.082Z,12.92
2022-09-21T17:04:27.790Z,12.89
2022-09-21T17:06:55.467Z,12.92
2022-09-21T17:09:29.592Z,12.82
2022-09-21T17:12:02.655Z,12.80
2022-09-21T17:14:35.280Z,12.78
2022-09-21T17:17:11.196Z,12.76
2022-09-21T17:19:41.619Z,12.76
2022-09-21T17:22:16.657Z,12.70
2022-09-21T17:24:51.837Z,12.67
2022-09-21T17:27:22.087Z,12.65
2022-09-21T17:29:49.627Z,12.65
2022-09-21T17:32:22.201Z,12.62
2022-09-21T17:35:11.985Z,12.57
2022-09-21T17:37:38.732Z,12.46
2022-09-21T17:40:10.706Z,12.52
2022-09-21T17:42:40.854Z,12.48
2022-09-21T17:45:18.265Z,12.42
2022-09-21T17:47:45.744Z,12.43
2022-09-21T17:50:12.544Z,12.41
2022-09-21T17:53:00.535Z,12.38
2022-09-21T17:55:28.165Z,12.30
2022-09-21T17:58:13.873Z,12.29
2022-09-21T18:00:51.925Z,12.29
2022-09-21T18:03:27.721Z,12.21
2022-09-21T18:06:00.071Z,12.19
2022-09-21T18:08:31.857Z,12.22
2022-09-21T18:11:10.592Z,12.20
2022-09-21T18:14:08.709Z,12.21
2022-09-21T18:17:00.087Z,12.22
2022-09-21T18:19:54.624Z,12.19
2022-09-21T18:22:21.417Z,12.12
2022-09-21T18:24:49.799Z,12.12
2022-09-21T18:27:19.498Z,12.08
2022-09-21T18:29:46.884Z,12.09
2022-09-21T18:32:26.372Z,12.11
2022-09-21T18:34:56.297Z,12.13
2022-09-21T18:37:31.996Z,12.11
2022-09-21T18:40:31.665Z,12.09
2022-09-21T18:43:01.571Z,11.98
2022-09-21T18:45:37.135Z,11.93
2022-09-21T18:48:35.621Z,11.88
2022-09-21T18:51:23.742Z,11.78
2022-09-21T18:53:55.117Z,11.64
2022-09-21T18:56:29.629Z,11.52
2022-09-21T18:58:58.117Z,11.44
2022-09-21T19:01:28.663Z,11.36
2022-09-21T19:03:55.564Z,11.30
2022-09-21T19:06:45.978Z,11.26
2022-09-21T19:09:37.205Z,11.18
2022-09-21T19:12:27.275Z,11.10
2022-09-21T19:15:12.432Z,11.04
2022-09-21T19:18:01.377Z,11.03
2022-09-21T19:20:43.781Z,10.99
2022-09-21T19:23:31.597Z,10.99
2022-09-21T19:26:11.914Z,11.01
2022-09-21T19:29:18.708Z,11.01
2022-09-21T19:31:45.556Z,11.01
2022-09-21T19:34:18.873Z,11.00
2022-09-21T19:36:46.815Z,10.98
2022-09-21T19:39:14.997Z,10.94
2022-09-21T19:41:50.357Z,10.93
2022-09-21T19:44:29.333Z,10.93
2022-09-21T19:46:58.799Z,10.95
2022-09-21T19:49:47.386Z,11.01
2022-09-21T19:52:18.645Z,11.11
2022-09-21T19:55:05.632Z,11.13
2022-09-21T19:57:52.831Z,11.15
2022-09-21T20:00:23.167Z,11.19
2022-09-21T20:03:36.245Z,11.22
2022-09-21T20:06:29.237Z,11.25
2022-09-21T20:09:16.094Z,11.27
2022-09-21T20:11:48.357Z,11.30
2022-09-21T20:14:22.836Z,11.35
2022-09-21T20:17:00.992Z,11.34
2022-09-21T20:19:35.199Z,11.31
2022-09-21T20:22:11.375Z,11.32
2022-09-21T20:24:49.595Z,11.29
2022-09-21T20:27:38.852Z,11.26
2022-09-21T20:30:12.469Z,11.27
2022-09-21T20:32:43.825Z,11.22
2022-09-21T20:35:16.770Z,11.19
2022-09-21T20:37:45.784Z,11.17
2022-09-21T20:40:14.864Z,11.14
2022-09-21T20:42:43.515Z,11.11
2022-09-21T20:45:13.732Z,11.07
2022-09-21T20:47:41.846Z,11.03
2022-09-21T20:50:12.907Z,11.00
2022-09-21T20:52:43.020Z,11.00
2022-09-21T20:55:14.299Z,10.96
2022-09-21T20:57:42.465Z,11.00
2022-09-21T21:00:14.398Z,11.00
2022-09-21T21:02:43.420Z,11.01
2022-09-21T21:05:11.621Z,10.97
2022-09-21T21:07:45.246Z,10.94
2022-09-21T21:10:14.877Z,10.90
2022-09-21T21:12:43.488Z,10.85
2022-09-21T21:15:12.814Z,10.83
2022-09-21T21:17:42.365Z,10.72
2022-09-21T21:20:11.107Z,10.67
2022-09-21T21:22:39.673Z,10.56
2022-09-21T21:25:08.805Z,10.49
2022-09-21T21:27:37.010Z,10.43
2022-09-21T21:30:07.118Z,10.38
2022-09-21T21:32:35.677Z,10.35
2022-09-21T21:35:04.774Z,10.30
2022-09-21T21:37:32.856Z,10.28
2022-09-21T21:40:01.648Z,10.25
2022-09-21T21:42:29.731Z,10.24
2022-09-21T21:44:57.734Z,10.23
2022-09-21T21:47:39.365Z,10.25
2022-09-21T21:50:11.327Z,10.26
2022-09-21T21:52:39.496Z,10.28
2022-09-21T21:55:07.985Z,10.28
2022-09-21T21:57:36.137Z,10.26
2022-09-21T22:00:06.286Z,10.21
2022-09-21T22:02:34.584Z,10.17
2022-09-21T22:05:02.633Z,10.14
2022-09-21T22:07:30.755Z,10.09
2022-09-21T22:09:58.782Z,10.02
2022-09-21T22:12:26.895Z,9.96
2022-09-21T22:14:54.913Z,9.91
2022-09-21T22:17:23.416Z,9.86
2022-09-21T22:19:51.651Z,9.83
2022-09-21T22:22:19.605Z,9.79
2022-09-21T22:24:48.297Z,9.77
2022-09-21T22:27:16.714Z,9.73
2022-09-21T22:29:45.245Z,9.72
2022-09-21T22:32:13.204Z,9.71
2022-09-21T22:34:41.330Z,9.67
2022-09-21T22:37:09.918Z,9.66
2022-09-21T22:39:38.077Z,9.64
2022-09-21T22:42:06.197Z,9.62
2022-09-21T22:44:34.219Z,9.61
2022-09-21T22:47:02.255Z,9.58
2022-09-21T22:49:30.257Z,9.54
2022-09-21T22:51:58.377Z,9.50
2022-09-21T22:54:27.796Z,9.45
2022-09-21T22:56:55.890Z,9.41
2022-09-21T23:12:46.958Z,9.24
2022-09-21T23:15:16.724Z,9.15
2022-09-21T23:17:44.370Z,9.12
2022-09-21T23:20:11.878Z,9.07
2022-09-21T23:22:38.749Z,9.02
2022-09-21T23:25:06.363Z,8.97
2022-09-21T23:27:33.353Z,8.94
2022-09-21T23:29:59.998Z,8.91
2022-09-21T23:32:27.350Z,8.88
2022-09-21T23:34:54.152Z,8.86
2022-09-21T23:37:20.810Z,8.82
2022-09-21T23:39:48.114Z,8.77
2022-09-21T23:42:15.033Z,8.74
2022-09-21T23:44:41.791Z,8.69
2022-09-21T23:47:08.664Z,8.69
2022-09-21T23:49:35.390Z,8.66
2022-09-21T23:52:02.478Z,8.63
2022-09-21T23:54:29.236Z,8.61
2022-09-21T23:56:55.938Z,8.58
2022-09-21T23:59:23.146Z,8.56
